Enter the Airport ICAO Code

Search by Airport or City

Current Weather

LPMA | Madeira Airport

Funchal, Madeira, Portugal

Last Update 18 Minutes Ago

Partly Cloudy Sky

Temperature of 16 ºC

Moderate Winds from NorthEast

Temperature

16 ºC

Dew Point Temperature

08 ºC

Relative Humidity

59.17 %

Wind Direction

NorthEast (030º, Ranging from 350º to 060º)

Wind Velocity

22 km/h (12 kt)

Gusts

None

Visibility

Greater than 10 Kilometers

Sea Level Pressure

1024 hPa (Hectopascals)

Layers of Clouds

30% to 60% of Sky Covered from 488 mts (1600 ft) Above Ground Level.

METAR LPMA 090930Z 03012KT 350V060 9999 SCT016 16/08 Q1024

Weather Forecast

LPMA | Madeira Airport

Funchal, Madeira, Portugal

Forecast valid for the next 20 Hours

From now on it is expected:

Moderate Winds from North

From now on it is expected 11 hours with intermittent periods of:

Moderate to Strong Winds from North with Gusts

Maximum Temperature

No Data

Minimum Temperature

No Data

TAF LPMA 090500Z 0906/1006 01008KT 9999 SCT015 TEMPO 0906/0918 BKN015 BECMG 0906/0908 01013KT TEMPO 0908/1006 01015G25KT PROB30 TEMPO 0908/0921 01020G32KT